You are listening to:
SBLO Gnd/Twr/App - Londrina, Brazil

SBLO 201700Z 28005KT 9999 BKN016 25/23 Q1016

If stream doesn't start automatically press the play button
If stream stops then reload player then press play